Time,TemperatureF,DewpointF,PressureIn,WindDirection,WindDirectionDegrees,WindSpeedMPH,WindSpeedGustMPH,Humidity,HourlyPrecipIn,Conditions,Clouds,dailyrainin,SoftwareType,DateUTC
2013-04-20 00:01:00,25.0,25.0,-100.00,South,189,4.0,6.0,100,-99.99,,,-99.99,,2013-04-20 06:01:00,
2013-04-20 00:12:00,25.0,25.0,-100.00,South,189,4.0,6.0,100,-99.99,,,-99.99,,2013-04-20 06:12:00,
2013-04-20 00:21:00,25.0,25.0,-100.00,SSW,197,5.0,10.0,100,-99.99,,,-99.99,,2013-04-20 06:21:00,
2013-04-20 00:31:00,25.0,25.0,-100.00,SW,233,6.0,11.0,100,-99.99,,,-99.99,,2013-04-20 06:31:00,
2013-04-20 00:42:00,25.0,25.0,-100.00,SW,233,6.0,11.0,100,-99.99,,,-99.99,,2013-04-20 06:42:00,
2013-04-20 00:52:00,25.0,25.0,-100.00,WSW,249,10.0,20.0,100,-99.99,,,-99.99,,2013-04-20 06:52:00,
2013-04-20 01:01:00,25.0,25.0,-100.00,SW,235,7.0,11.0,100,-99.99,,,-99.99,,2013-04-20 07:01:00,
2013-04-20 01:11:00,25.0,25.0,-100.00,SW,235,7.0,11.0,100,-99.99,,,-99.99,,2013-04-20 07:11:00,
2013-04-20 01:21:00,25.0,25.0,-100.00,SSW,203,5.0,12.0,100,-99.99,,,-99.99,,2013-04-20 07:21:00,
2013-04-20 01:32:00,25.0,25.0,-100.00,SW,218,6.0,12.0,100,-99.99,,,-99.99,,2013-04-20 07:32:00,
2013-04-20 01:42:00,25.0,25.0,-100.00,SW,218,6.0,12.0,100,-99.99,,,-99.99,,2013-04-20 07:42:00,
2013-04-20 01:52:00,26.0,26.0,-100.00,West,264,10.0,19.0,100,-99.99,,,-99.99,,2013-04-20 07:52:00,
2013-04-20 02:01:00,26.0,26.0,-100.00,West,271,7.0,16.0,100,-99.99,,,-99.99,,2013-04-20 08:01:00,
2013-04-20 02:11:00,26.0,26.0,-100.00,West,271,7.0,16.0,100,-99.99,,,-99.99,,2013-04-20 08:11:00,
2013-04-20 02:21:00,26.0,26.0,-100.00,WSW,255,4.0,10.0,100,-99.99,,,-99.99,,2013-04-20 08:21:00,
2013-04-20 02:31:00,26.0,26.0,-100.00,West,262,7.0,13.0,100,-99.99,,,-99.99,,2013-04-20 08:31:00,
2013-04-20 02:42:00,26.0,26.0,-100.00,West,262,7.0,13.0,100,-99.99,,,-99.99,,2013-04-20 08:42:00,
2013-04-20 02:52:00,26.0,26.0,-100.00,West,267,6.0,11.0,100,-99.99,,,-99.99,,2013-04-20 08:52:00,
2013-04-20 03:01:00,26.0,26.0,-100.00,WNW,285,6.0,16.0,100,-99.99,,,-99.99,,2013-04-20 09:01:00,
2013-04-20 03:12:00,26.0,26.0,-100.00,WNW,285,6.0,16.0,100,-99.99,,,-99.99,,2013-04-20 09:12:00,
2013-04-20 03:21:00,26.0,26.0,-100.00,West,270,10.0,23.0,100,-99.99,,,-99.99,,2013-04-20 09:21:00,
2013-04-20 03:32:00,25.0,25.0,-100.00,West,269,13.0,23.0,100,-99.99,,,-99.99,,2013-04-20 09:32:00,
2013-04-20 03:43:00,25.0,25.0,-100.00,West,269,13.0,23.0,100,-99.99,,,-99.99,,2013-04-20 09:43:00,
2013-04-20 03:53:00,25.0,25.0,-100.00,West,270,10.0,21.0,100,-99.99,,,-99.99,,2013-04-20 09:53:00,
2013-04-20 04:02:00,25.0,25.0,-100.00,West,277,9.0,19.0,100,-99.99,,,-99.99,,2013-04-20 10:02:00,
2013-04-20 04:12:00,25.0,25.0,-100.00,West,277,9.0,19.0,100,-99.99,,,-99.99,,2013-04-20 10:12:00,
2013-04-20 04:23:00,25.0,25.0,-100.00,West,278,10.0,23.0,100,-99.99,,,-99.99,,2013-04-20 10:23:00,
2013-04-20 04:33:00,25.0,25.0,-100.00,West,275,12.0,24.0,100,-99.99,,,-99.99,,2013-04-20 10:33:00,
2013-04-20 04:42:00,25.0,25.0,-100.00,West,275,12.0,24.0,100,-99.99,,,-99.99,,2013-04-20 10:42:00,
2013-04-20 04:53:00,25.0,25.0,-100.00,West,272,10.0,20.0,100,-99.99,,,-99.99,,2013-04-20 10:53:00,
2013-04-20 05:02:00,25.0,25.0,-100.00,West,273,6.0,21.0,100,-99.99,,,-99.99,,2013-04-20 11:02:00,
2013-04-20 05:12:00,25.0,25.0,-100.00,West,273,6.0,21.0,100,-99.99,,,-99.99,,2013-04-20 11:12:00,
2013-04-20 05:23:00,25.0,25.0,-100.00,West,274,4.0,12.0,100,-99.99,,,-99.99,,2013-04-20 11:23:00,
2013-04-20 05:31:00,25.0,25.0,-100.00,West,279,7.0,16.0,100,-99.99,,,-99.99,,2013-04-20 11:31:00,
2013-04-20 05:42:00,25.0,25.0,-100.00,West,279,7.0,16.0,100,-99.99,,,-99.99,,2013-04-20 11:42:00,
2013-04-20 05:52:00,25.0,25.0,-100.00,West,277,7.0,19.0,100,-99.99,,,-99.99,,2013-04-20 11:52:00,
2013-04-20 06:02:00,25.0,25.0,-100.00,WNW,290,4.0,15.0,100,-99.99,,,-99.99,,2013-04-20 12:02:00,
2013-04-20 06:11:00,25.0,25.0,-100.00,WNW,290,4.0,15.0,100,-99.99,,,-99.99,,2013-04-20 12:11:00,
2013-04-20 06:22:00,25.0,25.0,-100.00,West,271,4.0,18.0,100,-99.99,,,-99.99,,2013-04-20 12:22:00,
2013-04-20 06:32:00,25.0,25.0,-100.00,WNW,301,5.0,16.0,100,-99.99,,,-99.99,,2013-04-20 12:32:00,
2013-04-20 06:42:00,25.0,25.0,-100.00,WNW,301,5.0,16.0,100,-99.99,,,-99.99,,2013-04-20 12:42:00,
2013-04-20 06:52:00,25.0,25.0,-100.00,West,271,5.0,15.0,100,-99.99,,,-99.99,,2013-04-20 12:52:00,
2013-04-20 07:02:00,24.0,24.0,-100.00,WNW,290,4.0,11.0,100,-99.99,,,-99.99,,2013-04-20 13:02:00,
2013-04-20 07:11:00,24.0,24.0,-100.00,WNW,290,4.0,11.0,100,-99.99,,,-99.99,,2013-04-20 13:11:00,
2013-04-20 07:21:00,24.0,24.0,-100.00,WNW,297,4.0,18.0,100,-99.99,,,-99.99,,2013-04-20 13:21:00,
2013-04-20 07:31:00,24.0,24.0,-100.00,West,266,4.0,13.0,100,-99.99,,,-99.99,,2013-04-20 13:31:00,
2013-04-20 07:42:00,24.0,24.0,-100.00,West,266,4.0,13.0,100,-99.99,,,-99.99,,2013-04-20 13:42:00,
2013-04-20 07:52:00,24.0,24.0,-100.00,WNW,302,3.0,9.0,100,-99.99,,,-99.99,,2013-04-20 13:52:00,
2013-04-20 08:02:00,24.0,24.0,-100.00,WNW,289,4.0,11.0,100,-99.99,,,-99.99,,2013-04-20 14:02:00,
2013-04-20 08:11:00,24.0,24.0,-100.00,WNW,289,4.0,11.0,100,-99.99,,,-99.99,,2013-04-20 14:11:00,
2013-04-20 08:21:00,25.0,25.0,-100.00,WNW,282,6.0,14.0,100,-99.99,,,-99.99,,2013-04-20 14:21:00,
2013-04-20 08:31:00,25.0,25.0,-100.00,West,280,8.0,21.0,100,-99.99,,,-99.99,,2013-04-20 14:31:00,
2013-04-20 08:42:00,25.0,25.0,-100.00,West,280,8.0,21.0,100,-99.99,,,-99.99,,2013-04-20 14:42:00,
2013-04-20 08:52:00,25.0,25.0,-100.00,West,277,9.0,24.0,100,-99.99,,,-99.99,,2013-04-20 14:52:00,
2013-04-20 09:01:00,24.0,24.0,-100.00,West,275,13.0,25.0,100,-99.99,,,-99.99,,2013-04-20 15:01:00,
2013-04-20 09:11:00,24.0,24.0,-100.00,West,275,13.0,25.0,100,-99.99,,,-99.99,,2013-04-20 15:11:00,
2013-04-20 09:21:00,25.0,25.0,-100.00,West,281,6.0,19.0,100,-99.99,,,-99.99,,2013-04-20 15:21:00,
2013-04-20 09:33:00,26.0,26.0,-100.00,WNW,284,6.0,15.0,100,-99.99,,,-99.99,,2013-04-20 15:33:00,
2013-04-20 09:43:00,26.0,26.0,-100.00,WNW,284,6.0,15.0,100,-99.99,,,-99.99,,2013-04-20 15:43:00,
2013-04-20 09:53:00,26.0,26.0,-100.00,WNW,286,7.0,17.0,100,-99.99,,,-99.99,,2013-04-20 15:53:00,
2013-04-20 10:03:00,26.0,26.0,-100.00,NW,314,5.0,16.0,100,-99.99,,,-99.99,,2013-04-20 16:03:00,
2013-04-20 10:12:00,26.0,26.0,-100.00,NW,314,5.0,16.0,100,-99.99,,,-99.99,,2013-04-20 16:12:00,
2013-04-20 10:23:00,28.0,28.0,-100.00,WNW,285,4.0,11.0,100,-99.99,,,-99.99,,2013-04-20 16:23:00,
2013-04-20 10:32:00,28.0,28.0,-100.00,WNW,301,4.0,11.0,100,-99.99,,,-99.99,,2013-04-20 16:32:00,
2013-04-20 10:42:00,28.0,28.0,-100.00,WNW,301,4.0,11.0,100,-99.99,,,-99.99,,2013-04-20 16:42:00,
2013-04-20 10:53:00,28.0,28.0,-100.00,WNW,303,4.0,15.0,100,-99.99,,,-99.99,,2013-04-20 16:53:00,
2013-04-20 11:02:00,28.0,28.0,-100.00,WNW,282,7.0,18.0,100,-99.99,,,-99.99,,2013-04-20 17:02:00,
2013-04-20 11:12:00,28.0,28.0,-100.00,WNW,282,7.0,18.0,100,-99.99,,,-99.99,,2013-04-20 17:12:00,
2013-04-20 11:22:00,28.0,28.0,-100.00,WNW,285,6.0,14.0,100,-99.99,,,-99.99,,2013-04-20 17:22:00,
2013-04-20 11:32:00,28.0,28.0,-100.00,West,278,6.0,13.0,100,-99.99,,,-99.99,,2013-04-20 17:32:00,
2013-04-20 11:42:00,28.0,28.0,-100.00,West,278,6.0,13.0,100,-99.99,,,-99.99,,2013-04-20 17:42:00,
2013-04-20 11:52:00,27.0,27.0,-100.00,West,270,10.0,19.0,100,-99.99,,,-99.99,,2013-04-20 17:52:00,
2013-04-20 12:02:00,26.0,26.0,-100.00,West,268,10.0,19.0,100,-99.99,,,-99.99,,2013-04-20 18:02:00,
2013-04-20 12:12:00,26.0,26.0,-100.00,West,268,10.0,19.0,100,-99.99,,,-99.99,,2013-04-20 18:12:00,
2013-04-20 12:22:00,27.0,27.0,-100.00,West,262,8.0,16.0,100,-99.99,,,-99.99,,2013-04-20 18:22:00,
2013-04-20 12:32:00,30.0,30.0,-100.00,West,266,5.0,18.0,100,-99.99,,,-99.99,,2013-04-20 18:32:00,
2013-04-20 12:41:00,30.0,30.0,-100.00,West,266,5.0,18.0,100,-99.99,,,-99.99,,2013-04-20 18:41:00,
2013-04-20 12:52:00,29.0,29.0,-100.00,SSE,168,4.0,10.0,100,-99.99,,,-99.99,,2013-04-20 18:52:00,
2013-04-20 13:01:00,31.0,31.0,-100.00,West,264,4.0,11.0,100,-99.99,,,-99.99,,2013-04-20 19:01:00,
2013-04-20 13:11:00,31.0,31.0,-100.00,West,264,4.0,11.0,100,-99.99,,,-99.99,,2013-04-20 19:11:00,
2013-04-20 13:21:00,35.0,35.0,-100.00,NW,306,3.0,8.0,100,-99.99,,,-99.99,,2013-04-20 19:21:00,
2013-04-20 13:31:00,32.0,32.0,-100.00,West,259,6.0,17.0,100,-99.99,,,-99.99,,2013-04-20 19:31:00,
2013-04-20 13:42:00,32.0,32.0,-100.00,West,259,6.0,17.0,100,-99.99,,,-99.99,,2013-04-20 19:42:00,
2013-04-20 13:52:00,31.0,31.0,-100.00,West,266,9.0,18.0,100,-99.99,,,-99.99,,2013-04-20 19:52:00,
2013-04-20 14:02:00,32.0,32.0,-100.00,West,261,6.0,15.0,100,-99.99,,,-99.99,,2013-04-20 20:02:00,
2013-04-20 14:12:00,32.0,32.0,-100.00,West,261,6.0,15.0,100,-99.99,,,-99.99,,2013-04-20 20:12:00,
2013-04-20 14:21:00,31.0,31.0,-100.00,West,262,7.0,17.0,100,-99.99,,,-99.99,,2013-04-20 20:21:00,
2013-04-20 14:32:00,30.0,30.0,-100.00,West,271,12.0,23.0,100,-99.99,,,-99.99,,2013-04-20 20:32:00,
2013-04-20 14:42:00,30.0,30.0,-100.00,West,271,12.0,23.0,100,-99.99,,,-99.99,,2013-04-20 20:42:00,
2013-04-20 14:52:00,30.0,30.0,-100.00,West,270,12.0,25.0,100,-99.99,,,-99.99,,2013-04-20 20:52:00,
2013-04-20 15:01:00,28.0,28.0,-100.00,West,268,19.0,27.0,100,-99.99,,,-99.99,,2013-04-20 21:01:00,
2013-04-20 15:12:00,28.0,28.0,-100.00,West,268,19.0,27.0,100,-99.99,,,-99.99,,2013-04-20 21:12:00,
2013-04-20 15:21:00,28.0,28.0,-100.00,West,272,14.0,25.0,100,-99.99,,,-99.99,,2013-04-20 21:21:00,
2013-04-20 15:32:00,31.0,31.0,-100.00,West,272,8.0,18.0,100,-99.99,,,-99.99,,2013-04-20 21:32:00,
2013-04-20 15:43:00,31.0,31.0,-100.00,West,272,8.0,18.0,100,-99.99,,,-99.99,,2013-04-20 21:43:00,
2013-04-20 15:53:00,29.0,29.0,-100.00,West,269,12.0,23.0,100,-99.99,,,-99.99,,2013-04-20 21:53:00,
2013-04-20 16:02:00,28.0,28.0,-100.00,West,267,15.0,25.0,100,-99.99,,,-99.99,,2013-04-20 22:02:00,
2013-04-20 16:12:00,28.0,28.0,-100.00,West,267,15.0,25.0,100,-99.99,,,-99.99,,2013-04-20 22:12:00,
2013-04-20 16:22:00,29.0,29.0,-100.00,West,274,9.0,19.0,100,-99.99,,,-99.99,,2013-04-20 22:22:00,
2013-04-20 16:32:00,29.0,29.0,-100.00,West,267,9.0,21.0,100,-99.99,,,-99.99,,2013-04-20 22:32:00,
2013-04-20 16:42:00,29.0,29.0,-100.00,West,267,9.0,21.0,100,-99.99,,,-99.99,,2013-04-20 22:42:00,
2013-04-20 16:52:00,28.0,28.0,-100.00,West,265,10.0,27.0,100,-99.99,,,-99.99,,2013-04-20 22:52:00,
2013-04-20 17:02:00,29.0,29.0,-100.00,West,278,6.0,17.0,100,-99.99,,,-99.99,,2013-04-20 23:02:00,
2013-04-20 17:11:00,29.0,29.0,-100.00,West,278,6.0,17.0,100,-99.99,,,-99.99,,2013-04-20 23:11:00,
2013-04-20 17:22:00,30.0,30.0,-100.00,WNW,294,6.0,15.0,100,-99.99,,,-99.99,,2013-04-20 23:22:00,
2013-04-20 17:32:00,29.0,29.0,-100.00,West,277,6.0,15.0,100,-99.99,,,-99.99,,2013-04-20 23:32:00,
2013-04-20 17:41:00,29.0,29.0,-100.00,West,277,6.0,15.0,100,-99.99,,,-99.99,,2013-04-20 23:41:00,
2013-04-20 17:52:00,30.0,30.0,-100.00,WNW,283,7.0,21.0,100,-99.99,,,-99.99,,2013-04-20 23:52:00,
2013-04-20 18:01:00,30.0,30.0,-100.00,West,260,7.0,21.0,100,-99.99,,,-99.99,,2013-04-21 00:01:00,
2013-04-20 18:11:00,30.0,30.0,-100.00,West,260,7.0,21.0,100,-99.99,,,-99.99,,2013-04-21 00:11:00,
2013-04-20 18:21:00,29.0,29.0,-100.00,West,277,9.0,24.0,100,-99.99,,,-99.99,,2013-04-21 00:21:00,
2013-04-20 18:32:00,29.0,29.0,-100.00,West,277,9.0,24.0,100,-99.99,,,-99.99,,2013-04-21 00:32:00,
2013-04-20 18:42:00,29.0,29.0,-100.00,West,277,9.0,24.0,100,-99.99,,,-99.99,,2013-04-21 00:42:00,
2013-04-20 18:52:00,30.0,30.0,-100.00,WNW,288,6.0,17.0,100,-99.99,,,-99.99,,2013-04-21 00:52:00,
2013-04-20 19:01:00,30.0,30.0,-100.00,WNW,288,7.0,22.0,100,-99.99,,,-99.99,,2013-04-21 01:01:00,
2013-04-20 19:11:00,30.0,30.0,-100.00,WNW,288,7.0,22.0,100,-99.99,,,-99.99,,2013-04-21 01:11:00,
2013-04-20 19:21:00,30.0,30.0,-100.00,WSW,253,5.0,16.0,100,-99.99,,,-99.99,,2013-04-21 01:21:00,
2013-04-20 19:31:00,29.0,29.0,-100.00,West,262,8.0,20.0,100,-99.99,,,-99.99,,2013-04-21 01:31:00,
2013-04-20 19:41:00,29.0,29.0,-100.00,West,262,8.0,20.0,100,-99.99,,,-99.99,,2013-04-21 01:41:00,
2013-04-20 19:52:00,28.0,28.0,-100.00,WNW,296,6.0,19.0,100,-99.99,,,-99.99,,2013-04-21 01:52:00,
2013-04-20 20:01:00,27.0,27.0,-100.00,WNW,285,8.0,22.0,100,-99.99,,,-99.99,,2013-04-21 02:01:00,
2013-04-20 20:11:00,27.0,27.0,-100.00,WNW,285,8.0,22.0,100,-99.99,,,-99.99,,2013-04-21 02:11:00,
2013-04-20 20:21:00,27.0,27.0,-100.00,West,280,6.0,13.0,100,-99.99,,,-99.99,,2013-04-21 02:21:00,
2013-04-20 20:31:00,27.0,27.0,-100.00,West,267,8.0,20.0,100,-99.99,,,-99.99,,2013-04-21 02:31:00,
2013-04-20 20:41:00,27.0,27.0,-100.00,West,267,8.0,20.0,100,-99.99,,,-99.99,,2013-04-21 02:41:00,
2013-04-20 20:52:00,27.0,27.0,-100.00,West,275,7.0,17.0,100,-99.99,,,-99.99,,2013-04-21 02:52:00,
2013-04-20 21:01:00,26.0,26.0,-100.00,West,275,6.0,15.0,100,-99.99,,,-99.99,,2013-04-21 03:01:00,
2013-04-20 21:11:00,26.0,26.0,-100.00,West,275,6.0,15.0,100,-99.99,,,-99.99,,2013-04-21 03:11:00,
2013-04-20 21:21:00,27.0,27.0,-100.00,West,274,7.0,19.0,100,-99.99,,,-99.99,,2013-04-21 03:21:00,
2013-04-20 21:32:00,27.0,27.0,-100.00,West,271,3.0,8.0,100,-99.99,,,-99.99,,2013-04-21 03:32:00,
2013-04-20 21:42:00,27.0,27.0,-100.00,West,271,3.0,8.0,100,-99.99,,,-99.99,,2013-04-21 03:42:00,
2013-04-20 21:52:00,27.0,27.0,-100.00,WSW,254,4.0,12.0,100,-99.99,,,-99.99,,2013-04-21 03:52:00,
2013-04-20 22:02:00,27.0,27.0,-100.00,WSW,239,6.0,15.0,100,-99.99,,,-99.99,,2013-04-21 04:02:00,
2013-04-20 22:12:00,27.0,27.0,-100.00,WSW,239,6.0,15.0,100,-99.99,,,-99.99,,2013-04-21 04:12:00,
2013-04-20 22:22:00,27.0,27.0,-100.00,West,280,4.0,14.0,100,-99.99,,,-99.99,,2013-04-21 04:22:00,
2013-04-20 22:33:00,26.0,26.0,-100.00,WSW,252,3.0,10.0,100,-99.99,,,-99.99,,2013-04-21 04:33:00,
2013-04-20 22:42:00,26.0,26.0,-100.00,WSW,252,3.0,10.0,100,-99.99,,,-99.99,,2013-04-21 04:42:00,
2013-04-20 22:53:00,27.0,27.0,-100.00,SSW,192,4.0,11.0,100,-99.99,,,-99.99,,2013-04-21 04:53:00,
2013-04-20 23:02:00,27.0,27.0,-100.00,SW,219,6.0,13.0,100,-99.99,,,-99.99,,2013-04-21 05:02:00,
2013-04-20 23:12:00,27.0,27.0,-100.00,SW,219,6.0,13.0,100,-99.99,,,-99.99,,2013-04-21 05:12:00,
2013-04-20 23:22:00,26.0,26.0,-100.00,West,268,7.0,13.0,100,-99.99,,,-99.99,,2013-04-21 05:22:00,
2013-04-20 23:32:00,26.0,26.0,-100.00,West,281,6.0,13.0,100,-99.99,,,-99.99,,2013-04-21 05:32:00,
2013-04-20 23:42:00,26.0,26.0,-100.00,West,281,6.0,13.0,100,-99.99,,,-99.99,,2013-04-21 05:42:00,
2013-04-20 23:52:00,26.0,26.0,-100.00,West,280,5.0,12.0,100,-99.99,,,-99.99,,2013-04-21 05:52:00,